createdAt,value
2023-12-28T00:02:19.646Z,3.90
2023-12-28T00:04:47.222Z,4.60
2023-12-28T00:07:15.010Z,3.10
2023-12-28T00:09:42.531Z,5.80
2023-12-28T00:12:10.060Z,6.90
2023-12-28T00:14:37.553Z,5.40
2023-12-28T00:17:06.656Z,6.00
2023-12-28T00:19:34.276Z,7.50
2023-12-28T00:22:01.836Z,7.40
2023-12-28T00:24:29.328Z,11.90
2023-12-28T00:26:56.811Z,13.60
2023-12-28T00:29:24.404Z,13.60
2023-12-28T00:31:52.019Z,12.40
2023-12-28T00:34:19.635Z,13.40
2023-12-28T00:36:47.350Z,8.40
2023-12-28T00:39:16.620Z,11.50
2023-12-28T00:41:44.229Z,7.70
2023-12-28T00:44:11.804Z,7.60
2023-12-28T00:46:39.273Z,6.90
2023-12-28T00:49:07.089Z,7.20
2023-12-28T00:51:35.836Z,5.70
2023-12-28T00:54:03.472Z,9.40
2023-12-28T00:56:31.080Z,8.00
2023-12-28T00:58:58.692Z,3.30
2023-12-28T01:01:26.237Z,3.70
2023-12-28T01:03:55.538Z,4.60
2023-12-28T01:06:23.223Z,3.10
2023-12-28T01:08:51.234Z,3.90
2023-12-28T01:11:18.757Z,5.20
2023-12-28T01:13:46.281Z,3.80
2023-12-28T01:16:14.764Z,3.80
2023-12-28T01:18:42.451Z,3.50
2023-12-28T01:21:10.248Z,5.80
2023-12-28T01:23:37.803Z,5.00
2023-12-28T01:26:05.359Z,4.80
2023-12-28T01:28:32.876Z,7.60
2023-12-28T01:31:00.524Z,7.20
2023-12-28T01:33:28.196Z,8.30
2023-12-28T01:35:55.881Z,14.10
2023-12-28T01:38:23.342Z,9.70
2023-12-28T01:40:50.907Z,13.60
2023-12-28T01:43:18.598Z,12.90
2023-12-28T01:45:46.747Z,14.40
2023-12-28T01:48:14.392Z,16.20
2023-12-28T01:50:42.012Z,18.10
2023-12-28T01:53:10.892Z,26.40
2023-12-28T01:55:38.481Z,28.10
2023-12-28T01:58:06.033Z,25.20
2023-12-28T02:00:35.734Z,21.90
2023-12-28T02:03:03.608Z,18.10
2023-12-28T02:05:31.352Z,7.80
2023-12-28T02:07:59.229Z,10.60
2023-12-28T02:10:27.911Z,5.20
2023-12-28T02:12:57.317Z,5.50
2023-12-28T02:15:25.252Z,4.20
2023-12-28T02:18:08.140Z,4.40
2023-12-28T02:20:37.941Z,3.80
2023-12-28T02:23:05.539Z,5.50
2023-12-28T02:25:33.169Z,3.40
2023-12-28T02:28:00.959Z,3.40
2023-12-28T02:30:30.628Z,4.10
2023-12-28T02:33:11.621Z,3.80
2023-12-28T02:35:47.480Z,2.80
2023-12-28T02:38:16.151Z,3.80
2023-12-28T02:40:48.079Z,4.00
2023-12-28T02:43:15.700Z,3.10
2023-12-28T02:45:43.428Z,5.00
2023-12-28T02:48:11.135Z,6.40
2023-12-28T02:50:38.742Z,7.60
2023-12-28T02:53:06.466Z,8.00
2023-12-28T02:55:33.934Z,8.30
2023-12-28T02:58:02.096Z,17.30
2023-12-28T03:00:30.914Z,10.30
2023-12-28T03:02:59.076Z,10.10
2023-12-28T03:05:26.760Z,18.00
2023-12-28T03:07:57.135Z,28.10
2023-12-28T03:10:25.023Z,25.00
2023-12-28T03:12:52.660Z,16.90
2023-12-28T03:15:21.162Z,16.30
2023-12-28T03:17:48.833Z,13.30
2023-12-28T03:20:16.654Z,12.10
2023-12-28T03:22:45.118Z,13.70
2023-12-28T03:25:13.383Z,14.00
2023-12-28T03:27:40.918Z,10.50
2023-12-28T03:30:09.174Z,9.40
2023-12-28T03:32:36.955Z,7.10
2023-12-28T03:35:05.428Z,6.00
2023-12-28T03:37:32.997Z,9.40
2023-12-28T03:40:00.605Z,6.70
2023-12-28T03:42:30.285Z,7.10
2023-12-28T03:44:58.315Z,7.80
2023-12-28T03:47:26.021Z,8.00
2023-12-28T03:49:53.712Z,7.30
2023-12-28T03:52:21.355Z,9.10
2023-12-28T03:54:48.915Z,6.70
2023-12-28T03:57:16.403Z,5.30
2023-12-28T03:59:43.910Z,6.70
2023-12-28T04:02:11.404Z,8.20
2023-12-28T04:04:38.917Z,10.50
2023-12-28T04:07:08.807Z,5.20
2023-12-28T04:09:36.386Z,7.10
2023-12-28T04:12:04.092Z,5.80
2023-12-28T04:14:31.699Z,8.00
2023-12-28T04:16:59.215Z,5.20
2023-12-28T04:19:26.973Z,7.60
2023-12-28T04:21:54.713Z,4.90
2023-12-28T04:24:22.390Z,5.20
2023-12-28T04:26:49.973Z,9.90
2023-12-28T04:29:17.854Z,8.50
2023-12-28T04:31:45.517Z,8.00
2023-12-28T04:34:13.991Z,9.20
2023-12-28T04:36:44.150Z,6.30
2023-12-28T04:39:11.858Z,7.50
2023-12-28T04:41:39.540Z,7.50
2023-12-28T04:44:07.462Z,10.20
2023-12-28T04:46:39.954Z,7.20
2023-12-28T04:49:08.807Z,5.30
2023-12-28T04:51:37.368Z,7.60
2023-12-28T04:54:04.956Z,7.20
2023-12-28T04:56:32.477Z,6.90
2023-12-28T04:58:59.945Z,5.60
2023-12-28T05:01:27.553Z,7.00
2023-12-28T05:03:55.291Z,7.80
2023-12-28T05:06:22.863Z,7.90
2023-12-28T05:08:53.053Z,7.60
2023-12-28T05:11:20.671Z,6.30
2023-12-28T05:13:48.200Z,6.80
2023-12-28T05:16:15.636Z,5.30
2023-12-28T05:18:43.292Z,6.30
2023-12-28T05:21:10.854Z,8.30
2023-12-28T05:23:38.341Z,7.70
2023-12-28T05:26:05.947Z,5.80
2023-12-28T05:28:33.727Z,7.80
2023-12-28T05:31:01.352Z,10.10
2023-12-28T05:33:29.145Z,8.40
2023-12-28T05:35:56.717Z,11.70
2023-12-28T05:38:24.313Z,9.80
2023-12-28T05:40:51.841Z,11.80
2023-12-28T05:43:19.367Z,9.20
2023-12-28T05:45:46.868Z,8.50
2023-12-28T05:48:14.684Z,23.90
2023-12-28T05:50:42.439Z,10.50
2023-12-28T05:53:15.298Z,9.40
2023-12-28T05:55:42.910Z,8.80
2023-12-28T05:58:10.988Z,9.30
2023-12-28T06:00:40.154Z,6.90
2023-12-28T06:03:07.809Z,9.40
2023-12-28T06:05:35.412Z,7.40
2023-12-28T06:08:03.000Z,6.90
2023-12-28T06:10:30.804Z,7.40
2023-12-28T06:12:58.320Z,5.60
2023-12-28T06:15:25.985Z,8.40
2023-12-28T06:17:53.754Z,8.00
2023-12-28T06:20:21.253Z,6.70
2023-12-28T06:22:50.373Z,6.00
2023-12-28T06:25:18.425Z,4.20
2023-12-28T06:27:46.029Z,6.40
2023-12-28T06:30:14.508Z,5.30
2023-12-28T06:32:42.477Z,7.80
2023-12-28T06:35:10.565Z,7.90
2023-12-28T06:37:38.251Z,8.20
2023-12-28T06:40:06.414Z,8.60
2023-12-28T06:42:34.063Z,6.60
2023-12-28T06:45:01.786Z,6.50
2023-12-28T06:47:29.388Z,9.00
2023-12-28T06:49:57.341Z,8.40
2023-12-28T06:52:25.135Z,7.40
2023-12-28T06:54:53.801Z,9.30
2023-12-28T06:57:21.426Z,8.00
2023-12-28T06:59:50.133Z,7.20
2023-12-28T07:02:18.513Z,9.90
2023-12-28T07:04:46.058Z,17.90
2023-12-28T07:07:13.723Z,7.50
2023-12-28T07:09:41.602Z,8.00
2023-12-28T07:12:09.239Z,7.40
2023-12-28T07:14:37.602Z,8.00
2023-12-28T07:17:05.210Z,8.40
2023-12-28T07:19:36.428Z,8.30
2023-12-28T07:22:04.326Z,9.70
2023-12-28T07:24:32.299Z,9.10
2023-12-28T07:26:59.949Z,9.60
2023-12-28T07:29:28.031Z,11.00
2023-12-28T07:31:55.824Z,11.00
2023-12-28T07:34:23.475Z,8.50
2023-12-28T07:36:53.861Z,8.80
2023-12-28T07:39:21.530Z,10.80
2023-12-28T07:41:50.992Z,10.40
2023-12-28T07:44:18.554Z,10.30
2023-12-28T07:46:46.108Z,13.20
2023-12-28T07:49:13.607Z,12.30
2023-12-28T07:51:41.388Z,6.50
2023-12-28T07:54:11.977Z,16.90
2023-12-28T07:56:39.575Z,6.90
2023-12-28T07:59:07.509Z,7.00
2023-12-28T08:01:35.114Z,6.20
2023-12-28T08:04:23.667Z,7.90
2023-12-28T08:06:51.600Z,5.20
2023-12-28T08:09:20.524Z,6.90
2023-12-28T08:11:48.146Z,5.60
2023-12-28T08:14:15.850Z,6.80
2023-12-28T08:16:43.420Z,7.60
2023-12-28T08:19:21.742Z,5.00
2023-12-28T08:21:54.249Z,8.00
2023-12-28T08:24:22.534Z,6.40
2023-12-28T08:26:50.348Z,5.50
2023-12-28T08:29:22.898Z,6.90
2023-12-28T08:31:51.321Z,5.60
2023-12-28T08:34:19.183Z,5.70
2023-12-28T08:36:50.074Z,7.60
2023-12-28T08:39:21.008Z,8.60
2023-12-28T08:41:49.077Z,8.00
2023-12-28T08:44:16.823Z,5.60
2023-12-28T08:46:44.948Z,6.00
2023-12-28T08:49:17.222Z,10.90
2023-12-28T08:51:47.983Z,5.20
2023-12-28T08:54:15.743Z,5.20
2023-12-28T08:56:43.591Z,5.20
2023-12-28T08:59:11.158Z,4.80
2023-12-28T09:01:38.961Z,5.30
2023-12-28T09:04:09.999Z,5.90
2023-12-28T09:06:37.705Z,4.50
2023-12-28T09:09:05.605Z,6.30
2023-12-28T09:11:40.130Z,6.80
2023-12-28T09:14:10.885Z,4.50
2023-12-28T09:16:40.538Z,6.30
2023-12-28T09:19:08.838Z,6.50
2023-12-28T09:21:36.888Z,5.20
2023-12-28T09:24:07.612Z,9.60
2023-12-28T09:26:37.239Z,5.70
2023-12-28T09:29:04.857Z,6.40
2023-12-28T09:31:32.431Z,7.60
2023-12-28T09:34:10.250Z,10.00
2023-12-28T09:36:46.566Z,9.10
2023-12-28T09:39:23.266Z,7.00
2023-12-28T09:42:08.799Z,8.00
2023-12-28T09:44:37.887Z,10.10
2023-12-28T09:47:08.231Z,7.40
2023-12-28T09:49:35.781Z,9.80
2023-12-28T09:52:03.862Z,7.20
2023-12-28T09:54:31.775Z,8.50
2023-12-28T09:56:59.584Z,9.40
2023-12-28T09:59:28.427Z,7.80
2023-12-28T10:01:56.484Z,11.40
2023-12-28T10:04:26.961Z,9.20
2023-12-28T10:06:54.678Z,8.00
2023-12-28T10:09:28.539Z,9.50
2023-12-28T10:11:57.281Z,6.90
2023-12-28T10:14:24.939Z,9.00
2023-12-28T10:16:52.688Z,8.90
2023-12-28T10:19:26.266Z,8.80
2023-12-28T10:21:54.132Z,8.00
2023-12-28T10:24:22.635Z,8.20
2023-12-28T10:26:50.990Z,10.20
2023-12-28T10:29:21.642Z,7.60
2023-12-28T10:31:52.668Z,10.00
2023-12-28T10:34:23.998Z,6.00
2023-12-28T10:36:52.421Z,5.60
2023-12-28T10:39:24.318Z,3.70
2023-12-28T10:41:56.309Z,3.30
2023-12-28T10:44:25.470Z,4.70
2023-12-28T10:46:57.470Z,2.90
2023-12-28T10:49:27.351Z,3.40
2023-12-28T10:51:58.634Z,4.40
2023-12-28T10:54:52.298Z,4.30
2023-12-28T10:57:29.527Z,6.10
2023-12-28T11:00:22.664Z,5.70
2023-12-28T11:02:55.158Z,3.70
2023-12-28T11:05:23.084Z,2.30
2023-12-28T11:07:51.668Z,3.60
2023-12-28T11:10:19.540Z,5.40
2023-12-28T11:12:47.252Z,3.50
2023-12-28T11:15:14.962Z,4.00
2023-12-28T11:17:46.760Z,3.20
2023-12-28T11:20:15.300Z,4.80
2023-12-28T11:22:50.124Z,5.40
2023-12-28T11:25:19.126Z,4.10
2023-12-28T11:27:50.028Z,2.90
2023-12-28T11:30:20.697Z,3.90
2023-12-28T11:32:50.947Z,4.90
2023-12-28T11:35:18.790Z,3.50
2023-12-28T11:37:48.898Z,6.00
2023-12-28T11:40:22.761Z,4.40
2023-12-28T11:42:54.101Z,4.90
2023-12-28T11:45:23.179Z,3.10
2023-12-28T11:48:02.764Z,3.20
2023-12-28T11:50:30.641Z,3.50
2023-12-28T11:52:58.664Z,3.70
2023-12-28T11:55:29.194Z,4.00
2023-12-28T11:57:56.998Z,3.60
2023-12-28T12:00:27.352Z,4.10
2023-12-28T12:02:57.550Z,6.60
2023-12-28T12:05:25.655Z,4.20
2023-12-28T12:07:58.339Z,4.30
2023-12-28T12:10:26.229Z,4.80
2023-12-28T12:12:54.220Z,5.10
2023-12-28T12:15:21.981Z,4.50
2023-12-28T12:17:49.619Z,3.00
2023-12-28T12:20:17.553Z,3.40
2023-12-28T12:22:45.460Z,3.10
2023-12-28T12:25:17.178Z,4.70
2023-12-28T12:27:44.834Z,1.90
2023-12-28T12:30:12.800Z,3.10
2023-12-28T12:32:44.389Z,3.00
2023-12-28T12:35:13.286Z,4.60
2023-12-28T12:37:41.159Z,2.80
2023-12-28T12:40:11.362Z,2.80
2023-12-28T12:42:40.235Z,3.80
2023-12-28T12:45:08.379Z,3.50
2023-12-28T12:47:36.334Z,1.80
2023-12-28T12:50:04.430Z,5.10
2023-12-28T12:52:32.447Z,3.40
2023-12-28T12:55:00.550Z,5.10
2023-12-28T12:57:28.713Z,2.00
2023-12-28T12:59:56.438Z,3.60
2023-12-28T13:02:25.368Z,3.20
2023-12-28T13:04:54.909Z,3.10
2023-12-28T13:07:22.753Z,3.10
2023-12-28T13:09:53.116Z,3.50
2023-12-28T13:12:20.845Z,3.70
2023-12-28T13:14:48.766Z,2.40
2023-12-28T13:17:20.519Z,4.20
2023-12-28T13:19:50.864Z,2.70
2023-12-28T13:22:18.474Z,4.30
2023-12-28T13:24:50.154Z,3.40
2023-12-28T13:27:18.167Z,4.00
2023-12-28T13:29:45.729Z,4.00
2023-12-28T13:32:13.367Z,3.60
2023-12-28T13:34:41.151Z,5.20
2023-12-28T13:37:08.950Z,6.50
2023-12-28T13:39:40.495Z,3.50
2023-12-28T13:42:08.924Z,3.90
2023-12-28T13:44:39.440Z,3.10
2023-12-28T13:47:08.903Z,3.90
2023-12-28T13:49:38.150Z,4.30
2023-12-28T13:52:09.031Z,4.70
2023-12-28T13:54:39.541Z,4.80
2023-12-28T13:57:08.010Z,1.90
2023-12-28T13:59:39.343Z,5.90
2023-12-28T14:02:07.063Z,4.40
2023-12-28T14:04:35.172Z,2.90
2023-12-28T14:07:05.169Z,5.50
2023-12-28T14:09:34.328Z,3.30
2023-12-28T14:12:02.449Z,3.80
2023-12-28T14:14:30.077Z,4.20
2023-12-28T14:16:57.967Z,3.80
2023-12-28T14:19:25.916Z,4.50
2023-12-28T14:21:55.495Z,2.90
2023-12-28T14:24:23.568Z,3.40
2023-12-28T14:26:51.143Z,4.50
2023-12-28T14:29:19.042Z,6.20
2023-12-28T14:31:47.969Z,6.70
2023-12-28T14:34:16.412Z,6.10
2023-12-28T14:36:50.943Z,4.10
2023-12-28T14:39:21.971Z,4.70
2023-12-28T14:41:49.701Z,4.30
2023-12-28T14:44:17.297Z,6.90
2023-12-28T14:46:45.188Z,3.80
2023-12-28T14:49:15.805Z,2.50
2023-12-28T14:51:44.039Z,3.50
2023-12-28T14:54:11.801Z,6.80
2023-12-28T14:56:54.633Z,3.40
2023-12-28T14:59:27.796Z,5.40
2023-12-28T15:01:56.689Z,3.90
2023-12-28T15:04:27.442Z,3.70
2023-12-28T15:06:55.602Z,2.30
2023-12-28T15:09:26.464Z,5.20
2023-12-28T15:11:55.652Z,4.30
2023-12-28T15:14:23.887Z,6.20
2023-12-28T15:16:55.287Z,4.10
2023-12-28T15:19:23.532Z,3.80
2023-12-28T15:21:55.309Z,2.90
2023-12-28T15:24:26.596Z,5.20
2023-12-28T15:26:56.344Z,5.50
2023-12-28T15:29:27.045Z,4.50
2023-12-28T15:32:00.705Z,4.80
2023-12-28T15:34:31.934Z,5.30
2023-12-28T15:36:59.760Z,2.70
2023-12-28T15:39:31.645Z,7.00
2023-12-28T15:42:01.352Z,4.60
2023-12-28T15:44:29.184Z,4.10
2023-12-28T15:46:56.781Z,4.50
2023-12-28T15:49:43.019Z,7.50
2023-12-28T15:52:12.882Z,5.40
2023-12-28T15:54:40.706Z,5.10
2023-12-28T15:57:09.633Z,4.10
2023-12-28T15:59:37.431Z,6.00
2023-12-28T16:02:07.839Z,7.40
2023-12-28T16:04:38.882Z,6.70
2023-12-28T16:07:07.069Z,8.10
2023-12-28T16:09:34.723Z,7.80
2023-12-28T16:12:02.518Z,7.40
2023-12-28T16:14:30.527Z,5.60
2023-12-28T16:16:58.317Z,6.60
2023-12-28T16:19:26.203Z,5.70
2023-12-28T16:21:54.206Z,6.60
2023-12-28T16:24:21.850Z,6.20
2023-12-28T16:26:49.666Z,5.50
2023-12-28T16:29:17.818Z,3.40
2023-12-28T16:31:45.918Z,5.10
2023-12-28T16:34:17.420Z,5.30
2023-12-28T16:36:48.427Z,5.80
2023-12-28T16:39:16.120Z,3.60
2023-12-28T16:41:43.698Z,5.80
2023-12-28T16:44:29.548Z,8.10
2023-12-28T16:47:00.309Z,8.60
2023-12-28T16:49:27.972Z,6.80
2023-12-28T16:51:55.686Z,7.20
2023-12-28T16:54:23.250Z,7.20
2023-12-28T16:56:50.883Z,4.60
2023-12-28T16:59:18.471Z,8.60
2023-12-28T17:01:46.279Z,9.30
2023-12-28T17:04:15.216Z,6.20
2023-12-28T17:06:47.568Z,6.70
2023-12-28T17:09:16.127Z,6.80
2023-12-28T17:11:46.379Z,7.30
2023-12-28T17:14:14.164Z,5.50
2023-12-28T17:16:42.181Z,7.30
2023-12-28T17:19:10.115Z,5.20
2023-12-28T17:21:40.567Z,8.90
2023-12-28T17:24:13.761Z,7.70
2023-12-28T17:26:46.260Z,12.90
2023-12-28T17:29:15.593Z,5.90
2023-12-28T17:31:45.595Z,8.50
2023-12-28T17:34:13.703Z,7.20
2023-12-28T17:36:41.723Z,6.60
2023-12-28T17:39:13.017Z,8.40
2023-12-28T17:41:41.939Z,7.90
2023-12-28T17:44:15.016Z,9.90
2023-12-28T17:46:50.567Z,10.90
2023-12-28T17:49:27.246Z,8.80
2023-12-28T17:51:56.663Z,8.20
2023-12-28T17:54:25.021Z,7.90
2023-12-28T17:56:53.292Z,6.70
2023-12-28T17:59:22.117Z,6.90
2023-12-28T18:01:49.879Z,7.20
2023-12-28T18:04:17.838Z,8.50
2023-12-28T18:06:45.593Z,8.10
2023-12-28T18:09:13.305Z,9.20
2023-12-28T18:11:40.933Z,7.30
2023-12-28T18:14:08.628Z,7.60
2023-12-28T18:16:36.533Z,8.20
2023-12-28T18:19:05.768Z,10.30
2023-12-28T18:21:33.682Z,10.50
2023-12-28T18:24:01.228Z,7.00
2023-12-28T18:26:29.103Z,8.80
2023-12-28T18:28:56.845Z,10.40
2023-12-28T18:31:25.823Z,10.70
2023-12-28T18:33:53.798Z,11.30
2023-12-28T18:36:21.832Z,9.30
2023-12-28T18:38:49.369Z,8.90
2023-12-28T18:41:16.909Z,10.80
2023-12-28T18:43:44.555Z,9.70
2023-12-28T18:46:12.288Z,9.80
2023-12-28T18:48:39.919Z,17.80
2023-12-28T18:51:09.697Z,9.40
2023-12-28T18:53:37.320Z,9.20
2023-12-28T18:56:05.091Z,10.30
2023-12-28T18:58:32.704Z,16.10
2023-12-28T19:01:00.463Z,12.10
2023-12-28T19:03:33.069Z,12.70
2023-12-28T19:06:14.582Z,18.00
2023-12-28T19:08:42.612Z,10.80
2023-12-28T19:11:35.887Z,14.40
2023-12-28T19:14:03.543Z,11.80
2023-12-28T19:16:31.123Z,10.20
2023-12-28T19:18:58.974Z,11.30
2023-12-28T19:21:26.828Z,13.70
2023-12-28T19:23:54.659Z,11.70
2023-12-28T19:26:22.263Z,12.10
2023-12-28T19:28:49.902Z,16.00
2023-12-28T19:31:18.388Z,14.90
2023-12-28T19:33:46.278Z,12.40
2023-12-28T19:36:14.274Z,17.40
2023-12-28T19:38:42.561Z,16.90
2023-12-28T19:41:10.138Z,16.30
2023-12-28T19:43:37.947Z,14.40
2023-12-28T19:46:05.626Z,17.80
2023-12-28T19:48:33.657Z,17.20
2023-12-28T19:51:01.479Z,15.40
2023-12-28T19:53:29.421Z,18.90
2023-12-28T19:55:57.068Z,14.80
2023-12-28T19:58:24.701Z,16.60
2023-12-28T20:00:52.327Z,17.40
2023-12-28T20:03:20.126Z,17.80
2023-12-28T20:05:50.074Z,14.40
2023-12-28T20:08:17.697Z,16.20
2023-12-28T20:10:45.332Z,18.70
2023-12-28T20:13:13.026Z,16.50
2023-12-28T20:15:41.835Z,16.00
2023-12-28T20:18:09.665Z,15.70
2023-12-28T20:20:37.533Z,20.40
2023-12-28T20:23:05.216Z,17.90
2023-12-28T20:25:34.340Z,16.30
2023-12-28T20:28:03.128Z,18.30
2023-12-28T20:30:31.695Z,17.50
2023-12-28T20:32:59.516Z,16.20
2023-12-28T20:35:27.851Z,17.60
2023-12-28T20:37:55.971Z,22.60
2023-12-28T20:40:24.892Z,19.50
2023-12-28T20:42:52.490Z,17.20
2023-12-28T20:45:20.067Z,17.30
2023-12-28T20:47:47.639Z,18.30
2023-12-28T20:50:15.359Z,16.30
2023-12-28T20:52:43.184Z,18.00
2023-12-28T20:55:10.971Z,20.00
2023-12-28T20:57:38.931Z,15.20
2023-12-28T21:00:07.805Z,16.00
2023-12-28T21:02:35.598Z,16.50
2023-12-28T21:05:03.392Z,15.90
2023-12-28T21:07:30.907Z,15.80
2023-12-28T21:09:58.543Z,15.40
2023-12-28T21:12:28.186Z,16.20
2023-12-28T21:14:56.478Z,16.40
2023-12-28T21:17:24.369Z,14.80
2023-12-28T21:19:52.106Z,16.70
2023-12-28T21:22:19.807Z,19.50
2023-12-28T21:24:47.445Z,18.00
2023-12-28T21:27:15.503Z,16.00
2023-12-28T21:29:46.585Z,17.90
2023-12-28T21:32:14.933Z,19.60
2023-12-28T21:34:43.672Z,18.10
2023-12-28T21:37:11.298Z,14.70
2023-12-28T21:39:42.342Z,16.30
2023-12-28T21:42:10.029Z,16.20
2023-12-28T21:44:37.555Z,15.00
2023-12-28T21:47:05.393Z,15.80
2023-12-28T21:49:33.010Z,17.30
2023-12-28T21:52:00.616Z,16.60
2023-12-28T21:54:28.246Z,17.00
2023-12-28T21:56:55.844Z,14.50
2023-12-28T21:59:24.333Z,14.50
2023-12-28T22:01:53.866Z,15.90
2023-12-28T22:04:22.247Z,17.40
2023-12-28T22:06:53.557Z,16.20
2023-12-28T22:09:23.562Z,14.90
2023-12-28T22:11:51.241Z,14.30
2023-12-28T22:14:23.787Z,16.20
2023-12-28T22:16:51.713Z,18.00
2023-12-28T22:19:19.523Z,16.70
2023-12-28T22:21:47.070Z,17.00
2023-12-28T22:24:14.595Z,17.60
2023-12-28T22:26:43.565Z,18.90
2023-12-28T22:29:11.438Z,15.40
2023-12-28T22:31:40.468Z,15.80
2023-12-28T22:34:09.860Z,14.80
2023-12-28T22:36:37.477Z,13.40
2023-12-28T22:39:05.224Z,17.80
2023-12-28T22:41:32.794Z,17.30
2023-12-28T22:44:00.332Z,19.90
2023-12-28T22:46:27.985Z,18.40
2023-12-28T22:48:55.552Z,16.40
2023-12-28T22:51:23.233Z,16.30
2023-12-28T22:53:51.029Z,17.60
2023-12-28T22:56:18.607Z,17.40
2023-12-28T22:58:46.117Z,15.00
2023-12-28T23:01:13.983Z,14.50
2023-12-28T23:03:41.554Z,20.20
2023-12-28T23:06:09.801Z,17.40
2023-12-28T23:08:37.318Z,20.00
2023-12-28T23:11:04.979Z,18.90
2023-12-28T23:13:32.625Z,20.60
2023-12-28T23:16:00.182Z,14.90
2023-12-28T23:18:28.069Z,14.40
2023-12-28T23:20:55.695Z,17.80
2023-12-28T23:23:23.253Z,14.10
2023-12-28T23:25:50.839Z,17.90
2023-12-28T23:28:18.375Z,17.50
2023-12-28T23:30:46.209Z,20.20
2023-12-28T23:33:15.314Z,17.30
2023-12-28T23:35:42.988Z,16.40
2023-12-28T23:38:10.566Z,18.00
2023-12-28T23:40:38.092Z,22.20
2023-12-28T23:43:07.277Z,17.30
2023-12-28T23:45:35.807Z,18.50
2023-12-28T23:48:04.231Z,17.30
2023-12-28T23:50:31.988Z,17.10
2023-12-28T23:52:59.449Z,17.40
2023-12-28T23:55:27.011Z,15.10
2023-12-28T23:57:54.530Z,21.50
